SAS353 EDDC-ESPA
Flight info
| Callsign | SAS353 |
|---|---|
| Flight time | N/A |
| Altitude | 38000 |
| Route | BEBEX7E/04 BEBEX DCT HOZ DCT BALOX M736 SIMEG/N0402F280 M736 NEXIL/N0404F290 N851 ROXEN/N0392F270 N851 BEDOS/N0451F390 N851 TRS/N0390F270 M607 SOPLI DCT TURAS DCT TIMOB |
| Aircraft | A20N/M-SDE2E3FGHIRWXY/LB1 |
Departure
| Time | 2026-05-06 19:43 |
|---|---|
| Airport | Dresden Airport (EDDC) |
Arrival
| Time | N/A |
|---|---|
| Airport | Luleå Airport (ESPA) |
| Time | Latitude | Longitude | Altitude | Speed | Heading |
|---|---|---|---|---|---|
| 2026-05-06 19:12 | 51.12567 | 13.76669 | 755 ft | 0 kts | 221° |
| 2026-05-06 19:32 | 51.12568 | 13.76672 | 737 ft | 1 kts | 221° |
| 2026-05-06 19:32 | 51.12574 | 13.76680 | 734 ft | 1 kts | 221° |
| 2026-05-06 19:33 | 51.12580 | 13.76688 | 731 ft | 1 kts | 221° |
| 2026-05-06 19:33 | 51.12585 | 13.76696 | 731 ft | 1 kts | 221° |
| 2026-05-06 19:33 | 51.12591 | 13.76704 | 756 ft | 1 kts | 221° |
| 2026-05-06 19:33 | 51.12597 | 13.76712 | 750 ft | 1 kts | 221° |
| 2026-05-06 19:34 | 51.12603 | 13.76720 | 749 ft | 1 kts | 224° |
| 2026-05-06 19:34 | 51.12608 | 13.76729 | 750 ft | 1 kts | 232° |
| 2026-05-06 19:34 | 51.12613 | 13.76739 | 750 ft | 1 kts | 266° |
| 2026-05-06 19:34 | 51.12613 | 13.76745 | 750 ft | 0 kts | 285° |
| 2026-05-06 19:38 | 51.12617 | 13.76730 | 753 ft | 6 kts | 292° |
| 2026-05-06 19:38 | 51.12657 | 13.76648 | 751 ft | 13 kts | 311° |
| 2026-05-06 19:38 | 51.12729 | 13.76516 | 748 ft | 18 kts | 311° |
| 2026-05-06 19:39 | 51.12771 | 13.76374 | 746 ft | 12 kts | 233° |
| 2026-05-06 19:39 | 51.12702 | 13.76271 | 746 ft | 14 kts | 220° |
| 2026-05-06 19:39 | 51.12627 | 13.76168 | 752 ft | 14 kts | 220° |
| 2026-05-06 19:39 | 51.12548 | 13.76057 | 752 ft | 15 kts | 223° |
| 2026-05-06 19:40 | 51.12471 | 13.75951 | 758 ft | 15 kts | 220° |
| 2026-05-06 19:40 | 51.12389 | 13.75838 | 755 ft | 16 kts | 224° |
| 2026-05-06 19:40 | 51.12390 | 13.75684 | 761 ft | 13 kts | 292° |
| 2026-05-06 19:40 | 51.12392 | 13.75676 | 761 ft | 0 kts | 292° |
| 2026-05-06 19:41 | 51.12397 | 13.75658 | 761 ft | 5 kts | 292° |
| 2026-05-06 19:41 | 51.12423 | 13.75575 | 763 ft | 11 kts | 300° |
| 2026-05-06 19:41 | 51.12484 | 13.75513 | 765 ft | 12 kts | 357° |
| 2026-05-06 19:41 | 51.12530 | 13.75556 | 763 ft | 0 kts | 41° |
| 2026-05-06 19:42 | 51.12533 | 13.75560 | 763 ft | 0 kts | 41° |
| 2026-05-06 19:42 | 51.12569 | 13.75610 | 762 ft | 31 kts | 41° |
| 2026-05-06 19:42 | 51.12930 | 13.76101 | 743 ft | 102 kts | 40° |
| 2026-05-06 19:42 | 51.13615 | 13.77035 | 729 ft | 155 kts | 40° |
| 2026-05-06 19:43 | 51.14457 | 13.78193 | 1231 ft | 160 kts | 41° |
| 2026-05-06 19:43 | 51.15315 | 13.79462 | 1744 ft | 177 kts | 44° |
| 2026-05-06 19:43 | 51.16277 | 13.80849 | 2171 ft | 196 kts | 43° |
| 2026-05-06 19:43 | 51.17357 | 13.82354 | 2510 ft | 217 kts | 41° |
| 2026-05-06 19:44 | 51.18598 | 13.83948 | 2831 ft | 241 kts | 31° |
| 2026-05-06 19:44 | 51.20255 | 13.84796 | 3331 ft | 261 kts | 1° |
| 2026-05-06 19:44 | 51.22077 | 13.84560 | 4254 ft | 265 kts | 352° |
| 2026-05-06 19:44 | 51.23923 | 13.84227 | 5200 ft | 269 kts | 352° |
| 2026-05-06 19:45 | 51.25804 | 13.83895 | 6119 ft | 274 kts | 352° |
| 2026-05-06 19:45 | 51.27725 | 13.83563 | 6698 ft | 280 kts | 352° |
| 2026-05-06 19:45 | 51.29635 | 13.82966 | 6805 ft | 279 kts | 334° |
| 2026-05-06 19:45 | 51.31181 | 13.81215 | 6790 ft | 272 kts | 308° |
| 2026-05-06 19:46 | 51.32043 | 13.78570 | 6798 ft | 269 kts | 281° |
| 2026-05-06 19:46 | 51.32259 | 13.75606 | 6796 ft | 269 kts | 273° |
| 2026-05-06 19:46 | 51.32413 | 13.72629 | 6818 ft | 270 kts | 274° |
| 2026-05-06 19:46 | 51.32574 | 13.69627 | 7175 ft | 272 kts | 274° |
| 2026-05-06 19:47 | 51.32753 | 13.66625 | 8116 ft | 270 kts | 277° |
| 2026-05-06 19:47 | 51.33382 | 13.63784 | 9081 ft | 277 kts | 300° |
| 2026-05-06 19:47 | 51.34754 | 13.61560 | 9933 ft | 288 kts | 321° |
| 2026-05-06 19:47 | 51.36482 | 13.59743 | 10382 ft | 309 kts | 325° |
| 2026-05-06 19:48 | 51.38401 | 13.57911 | 10667 ft | 333 kts | 327° |
| 2026-05-06 19:48 | 51.40434 | 13.55994 | 11271 ft | 342 kts | 326° |
| 2026-05-06 19:48 | 51.42490 | 13.54026 | 12083 ft | 346 kts | 326° |
| 2026-05-06 19:48 | 51.44556 | 13.52016 | 12888 ft | 350 kts | 326° |
| 2026-05-06 19:49 | 51.46647 | 13.49956 | 13685 ft | 354 kts | 326° |
| 2026-05-06 19:49 | 51.48757 | 13.47863 | 14380 ft | 359 kts | 326° |
| 2026-05-06 19:49 | 51.50892 | 13.45739 | 15074 ft | 363 kts | 325° |
| 2026-05-06 19:49 | 51.53050 | 13.43589 | 15754 ft | 368 kts | 326° |
| 2026-05-06 19:50 | 51.55239 | 13.41410 | 16440 ft | 372 kts | 325° |
| 2026-05-06 19:50 | 51.57423 | 13.39230 | 17106 ft | 376 kts | 325° |
| 2026-05-06 19:50 | 51.59657 | 13.36998 | 17783 ft | 380 kts | 325° |
| 2026-05-06 19:50 | 51.61919 | 13.34735 | 18409 ft | 384 kts | 325° |
| 2026-05-06 19:51 | 51.64195 | 13.32456 | 19009 ft | 388 kts | 325° |
| 2026-05-06 19:51 | 51.66496 | 13.30150 | 19608 ft | 391 kts | 325° |
| 2026-05-06 19:51 | 51.68813 | 13.27824 | 20190 ft | 394 kts | 325° |
| 2026-05-06 19:51 | 51.71151 | 13.25475 | 20753 ft | 398 kts | 325° |
| 2026-05-06 19:52 | 51.73512 | 13.23102 | 21312 ft | 402 kts | 326° |
| 2026-05-06 19:52 | 51.76068 | 13.21162 | 21844 ft | 411 kts | 339° |
| 2026-05-06 19:52 | 51.78888 | 13.20198 | 22358 ft | 420 kts | 353° |
| 2026-05-06 19:52 | 51.81828 | 13.20212 | 22873 ft | 426 kts | 0° |
| 2026-05-06 19:53 | 51.84805 | 13.20419 | 23379 ft | 430 kts | 0° |
| 2026-05-06 19:53 | 51.87818 | 13.20622 | 23819 ft | 434 kts | 0° |
| 2026-05-06 19:53 | 51.90848 | 13.20823 | 24272 ft | 438 kts | 0° |
| 2026-05-06 19:53 | 51.93901 | 13.21022 | 24702 ft | 441 kts | 0° |
| 2026-05-06 19:54 | 51.96866 | 13.21215 | 25135 ft | 444 kts | 0° |
| 2026-05-06 19:54 | 51.99965 | 13.21417 | 25564 ft | 447 kts | 0° |
| 2026-05-06 19:54 | 52.03077 | 13.21620 | 25984 ft | 450 kts | 0° |
| 2026-05-06 19:54 | 52.06219 | 13.21825 | 26399 ft | 453 kts | 0° |
| 2026-05-06 19:55 | 52.09378 | 13.22032 | 26812 ft | 456 kts | 0° |
| 2026-05-06 19:55 | 52.12558 | 13.22241 | 27214 ft | 459 kts | 360° |
| 2026-05-06 19:55 | 52.15758 | 13.22451 | 27599 ft | 462 kts | 360° |
| 2026-05-06 19:55 | 52.18972 | 13.22662 | 27989 ft | 464 kts | 360° |
| 2026-05-06 19:56 | 52.22167 | 13.22873 | 28370 ft | 466 kts | 360° |
| 2026-05-06 19:56 | 52.25425 | 13.23088 | 28734 ft | 469 kts | 360° |
| 2026-05-06 19:56 | 52.28695 | 13.23304 | 29082 ft | 471 kts | 360° |
| 2026-05-06 19:56 | 52.31978 | 13.23522 | 29419 ft | 474 kts | 360° |
| 2026-05-06 19:57 | 52.35284 | 13.23741 | 29753 ft | 477 kts | 360° |
| 2026-05-06 19:57 | 52.38606 | 13.23961 | 30065 ft | 479 kts | 360° |
| 2026-05-06 19:57 | 52.41940 | 13.24183 | 30372 ft | 481 kts | 360° |
| 2026-05-06 19:57 | 52.45290 | 13.24407 | 30673 ft | 483 kts | 359° |
| 2026-05-06 19:58 | 52.48658 | 13.24631 | 30979 ft | 484 kts | 359° |
| 2026-05-06 19:58 | 52.52022 | 13.24857 | 31357 ft | 484 kts | 359° |
| 2026-05-06 19:58 | 52.55387 | 13.25082 | 31774 ft | 483 kts | 359° |
| 2026-05-06 19:58 | 52.58746 | 13.25308 | 32166 ft | 482 kts | 359° |
| 2026-05-06 19:59 | 52.62094 | 13.25533 | 32557 ft | 481 kts | 359° |
| 2026-05-06 19:59 | 52.65437 | 13.25757 | 32945 ft | 480 kts | 359° |
| 2026-05-06 19:59 | 52.68773 | 13.25982 | 33326 ft | 479 kts | 359° |
| 2026-05-06 19:59 | 52.72102 | 13.26206 | 33701 ft | 478 kts | 359° |
| 2026-05-06 20:00 | 52.75425 | 13.26430 | 34032 ft | 477 kts | 359° |
| 2026-05-06 20:00 | 52.78739 | 13.26654 | 34320 ft | 477 kts | 359° |
| 2026-05-06 20:00 | 52.82053 | 13.26878 | 34568 ft | 477 kts | 359° |
| 2026-05-06 20:00 | 52.85365 | 13.27102 | 34832 ft | 476 kts | 359° |
| 2026-05-06 20:01 | 52.88676 | 13.27327 | 35086 ft | 476 kts | 359° |
| 2026-05-06 20:01 | 52.91980 | 13.27551 | 35329 ft | 476 kts | 359° |
| 2026-05-06 20:01 | 52.95293 | 13.27777 | 35566 ft | 476 kts | 359° |
| 2026-05-06 20:01 | 52.98600 | 13.28002 | 35792 ft | 476 kts | 359° |
| 2026-05-06 20:02 | 53.01908 | 13.28228 | 36007 ft | 476 kts | 359° |
| 2026-05-06 20:02 | 53.05216 | 13.28454 | 36229 ft | 476 kts | 359° |
| 2026-05-06 20:02 | 53.07404 | 13.28603 | 36380 ft | 475 kts | 359° |
| 2026-05-06 20:02 | 53.10714 | 13.28830 | 36589 ft | 475 kts | 359° |
| 2026-05-06 20:03 | 53.15100 | 13.29131 | 36845 ft | 476 kts | 359° |
| 2026-05-06 20:03 | 53.18404 | 13.29359 | 36881 ft | 475 kts | 359° |
| 2026-05-06 20:03 | 53.23931 | 13.29740 | 36882 ft | 474 kts | 359° |
| 2026-05-06 20:04 | 53.30519 | 13.30195 | 36888 ft | 474 kts | 359° |
| 2026-05-06 20:04 | 53.37113 | 13.30652 | 36890 ft | 474 kts | 359° |
| 2026-05-06 20:05 | 53.43703 | 13.31111 | 36893 ft | 474 kts | 359° |
| 2026-05-06 20:05 | 53.50298 | 13.31571 | 36897 ft | 474 kts | 359° |
| 2026-05-06 20:06 | 53.56845 | 13.32030 | 36909 ft | 474 kts | 359° |
| 2026-05-06 20:06 | 53.63438 | 13.32493 | 36902 ft | 474 kts | 359° |
| 2026-05-06 20:07 | 53.70031 | 13.32957 | 36908 ft | 474 kts | 359° |
| 2026-05-06 20:07 | 53.76620 | 13.33423 | 36908 ft | 474 kts | 359° |
| 2026-05-06 20:08 | 53.83217 | 13.33891 | 36911 ft | 474 kts | 359° |
| 2026-05-06 20:08 | 53.89813 | 13.34360 | 36915 ft | 474 kts | 359° |
| 2026-05-06 20:09 | 53.96400 | 13.34830 | 36919 ft | 474 kts | 359° |
| 2026-05-06 20:09 | 54.02991 | 13.35302 | 36924 ft | 474 kts | 359° |
| 2026-05-06 20:10 | 54.09573 | 13.35775 | 36925 ft | 473 kts | 359° |
| 2026-05-06 20:10 | 54.16158 | 13.36250 | 36929 ft | 473 kts | 359° |
| 2026-05-06 20:11 | 54.22740 | 13.36726 | 36932 ft | 473 kts | 359° |
| 2026-05-06 20:11 | 54.29321 | 13.37203 | 36935 ft | 473 kts | 359° |
| 2026-05-06 20:12 | 54.35898 | 13.37682 | 36938 ft | 473 kts | 359° |
| 2026-05-06 20:12 | 54.42477 | 13.38162 | 36942 ft | 473 kts | 359° |
| 2026-05-06 20:13 | 54.49013 | 13.38641 | 36943 ft | 473 kts | 359° |
| 2026-05-06 20:13 | 54.55583 | 13.39124 | 36950 ft | 473 kts | 359° |
| 2026-05-06 20:14 | 54.62156 | 13.39609 | 36953 ft | 473 kts | 359° |
| 2026-05-06 20:14 | 54.68732 | 13.40095 | 36953 ft | 473 kts | 359° |
| 2026-05-06 20:15 | 54.75302 | 13.40582 | 36959 ft | 472 kts | 359° |
| 2026-05-06 20:15 | 54.81866 | 13.41071 | 36966 ft | 472 kts | 359° |
| 2026-05-06 20:16 | 54.88428 | 13.41561 | 36968 ft | 472 kts | 359° |
| 2026-05-06 20:16 | 54.95003 | 13.42053 | 36971 ft | 472 kts | 359° |
| 2026-05-06 20:17 | 55.01556 | 13.42546 | 36970 ft | 472 kts | 360° |
| 2026-05-06 20:17 | 55.08072 | 13.44284 | 36971 ft | 476 kts | 8° |
| 2026-05-06 20:18 | 55.14520 | 13.46502 | 36973 ft | 475 kts | 8° |
| 2026-05-06 20:18 | 55.21048 | 13.48743 | 36976 ft | 475 kts | 8° |
| 2026-05-06 20:19 | 55.27487 | 13.50978 | 36982 ft | 475 kts | 8° |
| 2026-05-06 20:19 | 55.33972 | 13.53240 | 36987 ft | 475 kts | 8° |
| 2026-05-06 20:20 | 55.40456 | 13.55502 | 36976 ft | 474 kts | 7° |
| 2026-05-06 20:20 | 55.46986 | 13.56810 | 36977 ft | 472 kts | 2° |
| 2026-05-06 20:21 | 55.53523 | 13.58036 | 36996 ft | 472 kts | 3° |
| 2026-05-06 20:21 | 55.60055 | 13.59261 | 36986 ft | 472 kts | 2° |
| 2026-05-06 20:22 | 55.66583 | 13.60483 | 36995 ft | 472 kts | 2° |
| 2026-05-06 20:22 | 55.73112 | 13.61707 | 36993 ft | 472 kts | 2° |
| 2026-05-06 20:23 | 55.79536 | 13.62915 | 36992 ft | 471 kts | 2° |
| 2026-05-06 20:23 | 55.86073 | 13.64149 | 36991 ft | 471 kts | 2° |
| 2026-05-06 20:24 | 55.92549 | 13.65375 | 36990 ft | 471 kts | 2° |
| 2026-05-06 20:24 | 55.99062 | 13.66613 | 36995 ft | 471 kts | 2° |
| 2026-05-06 20:25 | 56.05583 | 13.67856 | 36993 ft | 471 kts | 2° |
| 2026-05-06 20:25 | 56.12099 | 13.69102 | 36993 ft | 471 kts | 2° |
| 2026-05-06 20:26 | 56.18609 | 13.70352 | 36990 ft | 471 kts | 2° |
| 2026-05-06 20:26 | 56.25125 | 13.71608 | 36996 ft | 471 kts | 2° |
| 2026-05-06 20:27 | 56.31619 | 13.73294 | 36996 ft | 475 kts | 13° |
| 2026-05-06 20:27 | 56.37651 | 13.78301 | 36993 ft | 483 kts | 33° |
| 2026-05-06 20:28 | 56.43033 | 13.85448 | 36992 ft | 484 kts | 34° |
| 2026-05-06 20:28 | 56.48459 | 13.92650 | 36989 ft | 484 kts | 34° |
| 2026-05-06 20:29 | 56.53878 | 13.99882 | 36989 ft | 484 kts | 34° |
| 2026-05-06 20:29 | 56.59286 | 14.07141 | 36988 ft | 484 kts | 35° |
| 2026-05-06 20:30 | 56.67411 | 14.18101 | 36990 ft | 485 kts | 35° |
| 2026-05-06 20:31 | 56.72822 | 14.25433 | 36992 ft | 485 kts | 35° |
| 2026-05-06 20:31 | 56.78232 | 14.32791 | 36996 ft | 485 kts | 35° |
| 2026-05-06 20:32 | 56.83638 | 14.40170 | 36993 ft | 486 kts | 35° |
| 2026-05-06 20:32 | 56.89045 | 14.47579 | 36989 ft | 486 kts | 35° |
| 2026-05-06 20:33 | 56.94452 | 14.55014 | 36993 ft | 486 kts | 35° |
| 2026-05-06 20:33 | 56.99825 | 14.62431 | 36988 ft | 486 kts | 35° |
| 2026-05-06 20:34 | 57.05224 | 14.69912 | 36991 ft | 487 kts | 35° |
| 2026-05-06 20:34 | 57.10630 | 14.77429 | 36984 ft | 487 kts | 35° |
| 2026-05-06 20:35 | 57.16029 | 14.84965 | 37003 ft | 487 kts | 35° |
| 2026-05-06 20:35 | 57.21427 | 14.92529 | 37000 ft | 487 kts | 36° |
| 2026-05-06 20:36 | 57.26824 | 15.00119 | 36994 ft | 488 kts | 36° |
| 2026-05-06 20:36 | 57.32224 | 15.07741 | 36995 ft | 488 kts | 36° |
| 2026-05-06 20:37 | 57.37618 | 15.15386 | 36998 ft | 488 kts | 36° |
| 2026-05-06 20:37 | 57.43011 | 15.23056 | 37002 ft | 489 kts | 36° |
| 2026-05-06 20:38 | 57.48406 | 15.30761 | 37002 ft | 489 kts | 36° |
| 2026-05-06 20:38 | 57.53798 | 15.38488 | 37006 ft | 489 kts | 36° |
| 2026-05-06 20:39 | 57.59187 | 15.46243 | 37001 ft | 490 kts | 36° |